Wallis, Texas
Current Conditions -  °F | °C
As of 6:15 AM on Thursday 18 Dec 2014 (Local Time) from KELA Reporting Station
Haze Haze  
Wind Chill: 59°   Ceiling: 400
Heat Index: 59°   Visibility: 2.5mi
Dew Point: 58°   Wind: 9mph
Humidity: 99%   Direction: 20°NNE
Pressure: 30.06"   Gusts: NA
Location:  29.63°N, 96.07°W
Report Text: KELA 181215Z AUTO 02008KT 2 1/2SM BR OVC004 15/15 A3006 RMK AO2 T01480146
Loading
Personal Weather Stations






























Interactive Weather Map New forecast layout! Learn more

10-Day Weather Forecast

Advertisements
Track Severe Weather on mobile